sensor_id;sensor_type;location;lat;lon;timestamp;temperature;humidity
13892;DHT22;7016;48.172;8.058;2022-08-03T00:01:37;19.60;92.50
13892;DHT22;7016;48.172;8.058;2022-08-03T00:04:05;19.60;92.90
13892;DHT22;7016;48.172;8.058;2022-08-03T00:06:31;19.50;93.10
13892;DHT22;7016;48.172;8.058;2022-08-03T00:08:57;19.50;93.40
13892;DHT22;7016;48.172;8.058;2022-08-03T00:11:22;19.50;93.50
13892;DHT22;7016;48.172;8.058;2022-08-03T00:13:49;19.70;93.50
13892;DHT22;7016;48.172;8.058;2022-08-03T00:16:14;19.60;93.60
13892;DHT22;7016;48.172;8.058;2022-08-03T00:18:40;19.70;93.20
13892;DHT22;7016;48.172;8.058;2022-08-03T00:21:06;19.50;93.20
13892;DHT22;7016;48.172;8.058;2022-08-03T00:23:33;19.50;93.80
13892;DHT22;7016;48.172;8.058;2022-08-03T00:25:59;19.40;93.80
13892;DHT22;7016;48.172;8.058;2022-08-03T00:28:25;19.30;93.80
13892;DHT22;7016;48.172;8.058;2022-08-03T00:30:51;19.30;93.80
13892;DHT22;7016;48.172;8.058;2022-08-03T00:33:17;19.20;94.10
13892;DHT22;7016;48.172;8.058;2022-08-03T00:35:44;19.20;94.30
13892;DHT22;7016;48.172;8.058;2022-08-03T00:38:09;19.20;94.00
13892;DHT22;7016;48.172;8.058;2022-08-03T00:40:35;19.40;93.50
13892;DHT22;7016;48.172;8.058;2022-08-03T00:43:03;19.30;93.70
13892;DHT22;7016;48.172;8.058;2022-08-03T00:45:34;19.20;94.60
13892;DHT22;7016;48.172;8.058;2022-08-03T00:48:01;19.20;94.30
13892;DHT22;7016;48.172;8.058;2022-08-03T00:50:28;19.30;93.80
13892;DHT22;7016;48.172;8.058;2022-08-03T00:52:57;19.20;94.10
13892;DHT22;7016;48.172;8.058;2022-08-03T00:55:24;19.10;94.50
13892;DHT22;7016;48.172;8.058;2022-08-03T00:57:50;19.10;94.50
13892;DHT22;7016;48.172;8.058;2022-08-03T01:00:19;19.10;94.50
13892;DHT22;7016;48.172;8.058;2022-08-03T01:02:45;19.10;94.90
13892;DHT22;7016;48.172;8.058;2022-08-03T01:05:11;19.10;94.90
13892;DHT22;7016;48.172;8.058;2022-08-03T01:10:19;18.90;94.40
13892;DHT22;7016;48.172;8.058;2022-08-03T01:12:56;19.00;94.60
13892;DHT22;7016;48.172;8.058;2022-08-03T01:18:35;19.00;94.70
13892;DHT22;7016;48.172;8.058;2022-08-03T01:21:09;19.00;94.10
13892;DHT22;7016;48.172;8.058;2022-08-03T01:26:33;18.80;95.10
13892;DHT22;7016;48.172;8.058;2022-08-03T01:32:14;18.80;94.80
13892;DHT22;7016;48.172;8.058;2022-08-03T01:34:46;18.80;94.80
13892;DHT22;7016;48.172;8.058;2022-08-03T01:37:15;18.80;94.50
13892;DHT22;7016;48.172;8.058;2022-08-03T01:39:42;18.90;94.30
13892;DHT22;7016;48.172;8.058;2022-08-03T01:42:10;18.80;94.40
13892;DHT22;7016;48.172;8.058;2022-08-03T01:44:41;18.80;94.70
13892;DHT22;7016;48.172;8.058;2022-08-03T01:47:09;18.70;95.20
13892;DHT22;7016;48.172;8.058;2022-08-03T01:49:42;18.70;94.80
13892;DHT22;7016;48.172;8.058;2022-08-03T01:52:10;18.60;95.20
13892;DHT22;7016;48.172;8.058;2022-08-03T01:54:41;18.50;95.40
13892;DHT22;7016;48.172;8.058;2022-08-03T01:57:08;18.50;95.40
13892;DHT22;7016;48.172;8.058;2022-08-03T01:59:35;18.50;95.20
13892;DHT22;7016;48.172;8.058;2022-08-03T02:02:03;18.50;95.40
13892;DHT22;7016;48.172;8.058;2022-08-03T02:04:30;18.40;95.40
13892;DHT22;7016;48.172;8.058;2022-08-03T02:06:57;18.30;95.60
13892;DHT22;7016;48.172;8.058;2022-08-03T02:09:24;18.40;95.60
13892;DHT22;7016;48.172;8.058;2022-08-03T02:11:52;18.30;95.80
13892;DHT22;7016;48.172;8.058;2022-08-03T02:14:20;18.30;95.90
13892;DHT22;7016;48.172;8.058;2022-08-03T02:16:48;18.30;96.10
13892;DHT22;7016;48.172;8.058;2022-08-03T02:19:15;18.40;95.20
13892;DHT22;7016;48.172;8.058;2022-08-03T02:21:44;18.30;95.50
13892;DHT22;7016;48.172;8.058;2022-08-03T02:24:11;18.30;95.10
13892;DHT22;7016;48.172;8.058;2022-08-03T02:26:39;18.20;95.50
13892;DHT22;7016;48.172;8.058;2022-08-03T02:29:12;18.30;96.00
13892;DHT22;7016;48.172;8.058;2022-08-03T02:31:40;18.30;95.10
13892;DHT22;7016;48.172;8.058;2022-08-03T02:34:13;18.40;95.40
13892;DHT22;7016;48.172;8.058;2022-08-03T02:36:41;18.30;94.90
13892;DHT22;7016;48.172;8.058;2022-08-03T02:39:12;18.30;95.30
13892;DHT22;7016;48.172;8.058;2022-08-03T02:41:47;18.10;95.60
13892;DHT22;7016;48.172;8.058;2022-08-03T02:44:14;18.20;95.70
13892;DHT22;7016;48.172;8.058;2022-08-03T02:46:44;18.20;95.50
13892;DHT22;7016;48.172;8.058;2022-08-03T02:49:12;18.10;95.50
13892;DHT22;7016;48.172;8.058;2022-08-03T02:51:40;18.00;96.00
13892;DHT22;7016;48.172;8.058;2022-08-03T02:54:08;18.10;96.40
13892;DHT22;7016;48.172;8.058;2022-08-03T02:56:35;18.10;96.30
13892;DHT22;7016;48.172;8.058;2022-08-03T02:59:02;18.10;95.60
13892;DHT22;7016;48.172;8.058;2022-08-03T03:01:29;18.10;96.10
13892;DHT22;7016;48.172;8.058;2022-08-03T03:03:56;18.00;96.50
13892;DHT22;7016;48.172;8.058;2022-08-03T03:06:24;18.00;96.20
13892;DHT22;7016;48.172;8.058;2022-08-03T03:08:51;17.90;96.60
13892;DHT22;7016;48.172;8.058;2022-08-03T03:11:19;17.90;96.20
13892;DHT22;7016;48.172;8.058;2022-08-03T03:13:46;17.90;96.60
13892;DHT22;7016;48.172;8.058;2022-08-03T03:16:15;18.00;96.50
13892;DHT22;7016;48.172;8.058;2022-08-03T03:18:43;18.00;96.80
13892;DHT22;7016;48.172;8.058;2022-08-03T03:21:09;17.90;96.50
13892;DHT22;7016;48.172;8.058;2022-08-03T03:23:37;17.90;96.90
13892;DHT22;7016;48.172;8.058;2022-08-03T03:26:04;17.90;96.80
13892;DHT22;7016;48.172;8.058;2022-08-03T03:28:31;17.90;96.80
13892;DHT22;7016;48.172;8.058;2022-08-03T03:30:57;17.90;96.00
13892;DHT22;7016;48.172;8.058;2022-08-03T03:33:23;17.90;96.50
13892;DHT22;7016;48.172;8.058;2022-08-03T03:35:50;17.80;96.20
13892;DHT22;7016;48.172;8.058;2022-08-03T03:38:17;17.70;96.70
13892;DHT22;7016;48.172;8.058;2022-08-03T03:40:43;17.70;97.00
13892;DHT22;7016;48.172;8.058;2022-08-03T03:43:10;17.70;97.30
13892;DHT22;7016;48.172;8.058;2022-08-03T03:45:36;17.70;97.40
13892;DHT22;7016;48.172;8.058;2022-08-03T03:48:05;17.60;97.00
13892;DHT22;7016;48.172;8.058;2022-08-03T03:50:33;17.70;96.90
13892;DHT22;7016;48.172;8.058;2022-08-03T03:52:59;17.70;97.20
13892;DHT22;7016;48.172;8.058;2022-08-03T03:55:25;17.60;97.20
13892;DHT22;7016;48.172;8.058;2022-08-03T03:57:51;17.60;97.10
13892;DHT22;7016;48.172;8.058;2022-08-03T04:00:18;17.60;96.90
13892;DHT22;7016;48.172;8.058;2022-08-03T04:02:44;17.70;97.10
13892;DHT22;7016;48.172;8.058;2022-08-03T04:05:10;17.70;96.70
13892;DHT22;7016;48.172;8.058;2022-08-03T04:07:59;17.70;97.30
13892;DHT22;7016;48.172;8.058;2022-08-03T04:10:54;17.80;96.80
13892;DHT22;7016;48.172;8.058;2022-08-03T04:13:31;17.70;97.50
13892;DHT22;7016;48.172;8.058;2022-08-03T04:15:58;17.60;97.20
13892;DHT22;7016;48.172;8.058;2022-08-03T04:18:26;17.60;97.90
13892;DHT22;7016;48.172;8.058;2022-08-03T04:20:54;17.60;97.70
13892;DHT22;7016;48.172;8.058;2022-08-03T04:23:24;17.60;97.70
13892;DHT22;7016;48.172;8.058;2022-08-03T04:25:51;17.50;98.00
13892;DHT22;7016;48.172;8.058;2022-08-03T04:28:18;17.60;97.90
13892;DHT22;7016;48.172;8.058;2022-08-03T04:30:46;17.60;97.70
13892;DHT22;7016;48.172;8.058;2022-08-03T04:33:16;17.60;98.00
13892;DHT22;7016;48.172;8.058;2022-08-03T04:35:45;17.50;98.20
13892;DHT22;7016;48.172;8.058;2022-08-03T04:38:13;17.50;98.20
13892;DHT22;7016;48.172;8.058;2022-08-03T04:40:41;17.50;98.00
13892;DHT22;7016;48.172;8.058;2022-08-03T04:43:09;17.50;98.20
13892;DHT22;7016;48.172;8.058;2022-08-03T04:45:36;17.60;98.30
13892;DHT22;7016;48.172;8.058;2022-08-03T04:48:03;17.60;98.30
13892;DHT22;7016;48.172;8.058;2022-08-03T04:50:29;17.70;98.00
13892;DHT22;7016;48.172;8.058;2022-08-03T04:52:55;17.60;98.30
13892;DHT22;7016;48.172;8.058;2022-08-03T04:55:25;17.60;98.40
13892;DHT22;7016;48.172;8.058;2022-08-03T04:57:51;17.60;98.60
13892;DHT22;7016;48.172;8.058;2022-08-03T05:00:17;17.60;98.40
13892;DHT22;7016;48.172;8.058;2022-08-03T05:02:43;17.60;98.70
13892;DHT22;7016;48.172;8.058;2022-08-03T05:05:08;17.70;98.90
13892;DHT22;7016;48.172;8.058;2022-08-03T05:07:36;17.70;98.70
13892;DHT22;7016;48.172;8.058;2022-08-03T05:10:07;17.70;98.50
13892;DHT22;7016;48.172;8.058;2022-08-03T05:12:33;17.70;98.70
13892;DHT22;7016;48.172;8.058;2022-08-03T05:14:59;17.70;98.60
13892;DHT22;7016;48.172;8.058;2022-08-03T05:17:25;17.70;98.90
13892;DHT22;7016;48.172;8.058;2022-08-03T05:19:51;17.70;98.80
13892;DHT22;7016;48.172;8.058;2022-08-03T05:22:17;17.70;99.10
13892;DHT22;7016;48.172;8.058;2022-08-03T05:24:42;17.70;99.10
13892;DHT22;7016;48.172;8.058;2022-08-03T05:27:08;17.70;99.40
13892;DHT22;7016;48.172;8.058;2022-08-03T05:29:34;17.70;99.20
13892;DHT22;7016;48.172;8.058;2022-08-03T05:32:00;17.70;99.50
13892;DHT22;7016;48.172;8.058;2022-08-03T05:34:26;17.80;99.40
13892;DHT22;7016;48.172;8.058;2022-08-03T05:36:52;17.90;99.20
13892;DHT22;7016;48.172;8.058;2022-08-03T05:39:17;17.90;99.00
13892;DHT22;7016;48.172;8.058;2022-08-03T05:41:43;17.90;99.30
13892;DHT22;7016;48.172;8.058;2022-08-03T05:44:09;17.80;99.50
13892;DHT22;7016;48.172;8.058;2022-08-03T05:46:35;17.80;99.50
13892;DHT22;7016;48.172;8.058;2022-08-03T05:49:00;17.90;99.50
13892;DHT22;7016;48.172;8.058;2022-08-03T05:51:26;18.00;99.30
13892;DHT22;7016;48.172;8.058;2022-08-03T05:53:53;18.00;99.80
13892;DHT22;7016;48.172;8.058;2022-08-03T05:56:23;18.10;99.50
13892;DHT22;7016;48.172;8.058;2022-08-03T05:58:49;18.20;99.40
13892;DHT22;7016;48.172;8.058;2022-08-03T06:01:16;18.20;99.30
13892;DHT22;7016;48.172;8.058;2022-08-03T06:03:42;18.30;99.30
13892;DHT22;7016;48.172;8.058;2022-08-03T06:06:08;18.60;99.00
13892;DHT22;7016;48.172;8.058;2022-08-03T06:08:34;18.80;98.70
13892;DHT22;7016;48.172;8.058;2022-08-03T06:11:00;19.10;98.10
13892;DHT22;7016;48.172;8.058;2022-08-03T06:13:25;19.20;98.10
13892;DHT22;7016;48.172;8.058;2022-08-03T06:15:51;19.40;97.80
13892;DHT22;7016;48.172;8.058;2022-08-03T06:18:17;19.60;97.50
13892;DHT22;7016;48.172;8.058;2022-08-03T06:20:43;19.80;96.60
13892;DHT22;7016;48.172;8.058;2022-08-03T06:23:08;20.00;96.70
13892;DHT22;7016;48.172;8.058;2022-08-03T06:25:34;19.70;96.80
13892;DHT22;7016;48.172;8.058;2022-08-03T06:28:00;20.20;97.00
13892;DHT22;7016;48.172;8.058;2022-08-03T06:30:26;20.50;96.20
13892;DHT22;7016;48.172;8.058;2022-08-03T06:32:51;20.50;96.60
13892;DHT22;7016;48.172;8.058;2022-08-03T06:35:17;20.70;96.40
13892;DHT22;7016;48.172;8.058;2022-08-03T06:37:48;20.70;96.80
13892;DHT22;7016;48.172;8.058;2022-08-03T06:40:17;20.90;96.10
13892;DHT22;7016;48.172;8.058;2022-08-03T06:42:43;21.00;96.10
13892;DHT22;7016;48.172;8.058;2022-08-03T06:45:10;21.00;96.20
13892;DHT22;7016;48.172;8.058;2022-08-03T06:47:39;21.10;96.10
13892;DHT22;7016;48.172;8.058;2022-08-03T06:50:06;21.20;95.40
13892;DHT22;7016;48.172;8.058;2022-08-03T06:52:32;21.30;95.90
13892;DHT22;7016;48.172;8.058;2022-08-03T06:54:58;21.30;96.00
13892;DHT22;7016;48.172;8.058;2022-08-03T06:57:24;21.40;95.50
13892;DHT22;7016;48.172;8.058;2022-08-03T06:59:49;21.60;96.10
13892;DHT22;7016;48.172;8.058;2022-08-03T07:02:15;21.60;96.30
13892;DHT22;7016;48.172;8.058;2022-08-03T07:04:43;21.80;96.40
13892;DHT22;7016;48.172;8.058;2022-08-03T07:07:08;21.90;95.80
13892;DHT22;7016;48.172;8.058;2022-08-03T07:09:34;22.10;95.60
13892;DHT22;7016;48.172;8.058;2022-08-03T07:12:00;22.10;95.90
13892;DHT22;7016;48.172;8.058;2022-08-03T07:14:27;22.20;95.60
13892;DHT22;7016;48.172;8.058;2022-08-03T07:16:52;22.30;95.50
13892;DHT22;7016;48.172;8.058;2022-08-03T07:19:18;22.40;95.10
13892;DHT22;7016;48.172;8.058;2022-08-03T07:21:44;22.30;95.20
13892;DHT22;7016;48.172;8.058;2022-08-03T07:24:10;22.40;95.20
13892;DHT22;7016;48.172;8.058;2022-08-03T07:26:36;22.60;95.10
13892;DHT22;7016;48.172;8.058;2022-08-03T07:29:01;22.70;95.20
13892;DHT22;7016;48.172;8.058;2022-08-03T07:31:27;22.80;95.00
13892;DHT22;7016;48.172;8.058;2022-08-03T07:33:53;22.90;94.40
13892;DHT22;7016;48.172;8.058;2022-08-03T07:36:19;22.90;94.40
13892;DHT22;7016;48.172;8.058;2022-08-03T07:38:44;23.00;94.50
13892;DHT22;7016;48.172;8.058;2022-08-03T07:41:11;23.20;94.10
13892;DHT22;7016;48.172;8.058;2022-08-03T07:43:36;23.30;94.10
13892;DHT22;7016;48.172;8.058;2022-08-03T07:46:02;23.30;93.50
13892;DHT22;7016;48.172;8.058;2022-08-03T07:48:28;23.40;92.30
13892;DHT22;7016;48.172;8.058;2022-08-03T07:50:53;23.50;91.40
13892;DHT22;7016;48.172;8.058;2022-08-03T07:53:19;23.60;90.00
13892;DHT22;7016;48.172;8.058;2022-08-03T07:55:45;23.70;90.10
13892;DHT22;7016;48.172;8.058;2022-08-03T07:58:12;23.80;90.70
13892;DHT22;7016;48.172;8.058;2022-08-03T08:00:40;24.00;91.50
13892;DHT22;7016;48.172;8.058;2022-08-03T08:03:07;24.00;90.60
13892;DHT22;7016;48.172;8.058;2022-08-03T08:05:33;24.10;90.50
13892;DHT22;7016;48.172;8.058;2022-08-03T08:08:00;24.30;89.90
13892;DHT22;7016;48.172;8.058;2022-08-03T08:10:26;24.50;88.30
13892;DHT22;7016;48.172;8.058;2022-08-03T08:12:52;24.50;89.30
13892;DHT22;7016;48.172;8.058;2022-08-03T08:15:17;24.60;88.40
13892;DHT22;7016;48.172;8.058;2022-08-03T08:17:48;24.70;89.80
13892;DHT22;7016;48.172;8.058;2022-08-03T08:20:18;24.90;87.90
13892;DHT22;7016;48.172;8.058;2022-08-03T08:22:44;24.90;87.30
13892;DHT22;7016;48.172;8.058;2022-08-03T08:25:10;25.00;87.90
13892;DHT22;7016;48.172;8.058;2022-08-03T08:27:47;25.10;87.80
13892;DHT22;7016;48.172;8.058;2022-08-03T08:30:15;25.30;86.30
13892;DHT22;7016;48.172;8.058;2022-08-03T08:32:41;25.40;88.30
13892;DHT22;7016;48.172;8.058;2022-08-03T08:35:08;25.50;87.20
13892;DHT22;7016;48.172;8.058;2022-08-03T08:37:34;25.60;87.50
13892;DHT22;7016;48.172;8.058;2022-08-03T08:40:00;25.80;84.20
13892;DHT22;7016;48.172;8.058;2022-08-03T08:42:25;25.90;84.40
13892;DHT22;7016;48.172;8.058;2022-08-03T08:44:51;26.00;83.20
13892;DHT22;7016;48.172;8.058;2022-08-03T08:47:23;26.10;82.50
13892;DHT22;7016;48.172;8.058;2022-08-03T08:49:52;26.20;82.00
13892;DHT22;7016;48.172;8.058;2022-08-03T08:52:23;26.20;83.10
13892;DHT22;7016;48.172;8.058;2022-08-03T08:54:50;26.40;82.20
13892;DHT22;7016;48.172;8.058;2022-08-03T08:57:17;26.50;82.30
13892;DHT22;7016;48.172;8.058;2022-08-03T08:59:44;26.60;80.30
13892;DHT22;7016;48.172;8.058;2022-08-03T09:02:10;26.60;80.90
13892;DHT22;7016;48.172;8.058;2022-08-03T09:04:38;26.70;80.20
13892;DHT22;7016;48.172;8.058;2022-08-03T09:07:04;26.80;80.40
13892;DHT22;7016;48.172;8.058;2022-08-03T09:09:31;27.00;79.40
13892;DHT22;7016;48.172;8.058;2022-08-03T09:11:56;27.00;80.30
13892;DHT22;7016;48.172;8.058;2022-08-03T09:14:22;27.00;80.40
13892;DHT22;7016;48.172;8.058;2022-08-03T09:16:55;27.10;79.50
13892;DHT22;7016;48.172;8.058;2022-08-03T09:19:29;27.30;77.40
13892;DHT22;7016;48.172;8.058;2022-08-03T09:22:08;27.30;78.10
13892;DHT22;7016;48.172;8.058;2022-08-03T09:24:35;27.40;79.60
13892;DHT22;7016;48.172;8.058;2022-08-03T09:27:01;27.50;77.30
13892;DHT22;7016;48.172;8.058;2022-08-03T09:29:31;27.60;76.00
13892;DHT22;7016;48.172;8.058;2022-08-03T09:32:02;27.60;76.80
13892;DHT22;7016;48.172;8.058;2022-08-03T09:34:28;27.60;74.80
13892;DHT22;7016;48.172;8.058;2022-08-03T09:36:55;27.70;74.90
13892;DHT22;7016;48.172;8.058;2022-08-03T09:39:25;27.80;73.40
13892;DHT22;7016;48.172;8.058;2022-08-03T09:42:07;27.80;74.10
13892;DHT22;7016;48.172;8.058;2022-08-03T09:44:44;27.90;74.40
13892;DHT22;7016;48.172;8.058;2022-08-03T09:47:33;28.10;74.30
13892;DHT22;7016;48.172;8.058;2022-08-03T09:50:05;28.30;73.00
13892;DHT22;7016;48.172;8.058;2022-08-03T09:52:37;28.30;71.40
13892;DHT22;7016;48.172;8.058;2022-08-03T09:55:11;28.40;72.30
13892;DHT22;7016;48.172;8.058;2022-08-03T09:57:38;28.60;69.50
13892;DHT22;7016;48.172;8.058;2022-08-03T10:00:15;28.60;69.20
13892;DHT22;7016;48.172;8.058;2022-08-03T10:02:42;28.70;70.50
13892;DHT22;7016;48.172;8.058;2022-08-03T10:05:10;28.80;69.20
13892;DHT22;7016;48.172;8.058;2022-08-03T10:07:47;28.80;67.00
13892;DHT22;7016;48.172;8.058;2022-08-03T10:10:14;28.90;64.50
13892;DHT22;7016;48.172;8.058;2022-08-03T10:12:41;28.90;62.30
13892;DHT22;7016;48.172;8.058;2022-08-03T10:15:08;28.90;63.20
13892;DHT22;7016;48.172;8.058;2022-08-03T10:17:34;28.90;64.80
13892;DHT22;7016;48.172;8.058;2022-08-03T10:20:00;29.10;64.30
13892;DHT22;7016;48.172;8.058;2022-08-03T10:22:32;29.10;62.90
13892;DHT22;7016;48.172;8.058;2022-08-03T10:25:06;29.10;62.50
13892;DHT22;7016;48.172;8.058;2022-08-03T10:27:41;29.20;62.30
13892;DHT22;7016;48.172;8.058;2022-08-03T10:30:08;29.40;61.50
13892;DHT22;7016;48.172;8.058;2022-08-03T10:32:42;29.40;59.60
13892;DHT22;7016;48.172;8.058;2022-08-03T10:35:12;29.40;62.30
13892;DHT22;7016;48.172;8.058;2022-08-03T10:37:43;29.50;62.20
13892;DHT22;7016;48.172;8.058;2022-08-03T10:40:13;29.60;60.40
13892;DHT22;7016;48.172;8.058;2022-08-03T10:42:41;29.60;59.50
13892;DHT22;7016;48.172;8.058;2022-08-03T10:45:18;29.60;59.80
13892;DHT22;7016;48.172;8.058;2022-08-03T10:47:48;29.70;59.80
13892;DHT22;7016;48.172;8.058;2022-08-03T10:50:16;30.10;58.60
13892;DHT22;7016;48.172;8.058;2022-08-03T10:53:07;30.10;58.90
13892;DHT22;7016;48.172;8.058;2022-08-03T11:01:07;30.20;59.00
13892;DHT22;7016;48.172;8.058;2022-08-03T11:06:24;30.30;58.70
13892;DHT22;7016;48.172;8.058;2022-08-03T11:11:41;30.30;57.80
13892;DHT22;7016;48.172;8.058;2022-08-03T11:14:11;30.50;56.90
13892;DHT22;7016;48.172;8.058;2022-08-03T11:16:45;30.70;57.70
13892;DHT22;7016;48.172;8.058;2022-08-03T11:19:18;30.60;55.10
13892;DHT22;7016;48.172;8.058;2022-08-03T11:27:29;30.70;57.00
13892;DHT22;7016;48.172;8.058;2022-08-03T11:46:09;31.00;54.00
13892;DHT22;7016;48.172;8.058;2022-08-03T11:48:44;30.90;54.70
13892;DHT22;7016;48.172;8.058;2022-08-03T11:53:59;31.20;55.10
13892;DHT22;7016;48.172;8.058;2022-08-03T11:56:26;31.30;54.10
13892;DHT22;7016;48.172;8.058;2022-08-03T11:58:54;31.40;54.90
13892;DHT22;7016;48.172;8.058;2022-08-03T12:01:22;31.40;54.80
13892;DHT22;7016;48.172;8.058;2022-08-03T12:03:48;31.30;55.70
13892;DHT22;7016;48.172;8.058;2022-08-03T12:06:15;31.50;54.80
13892;DHT22;7016;48.172;8.058;2022-08-03T12:08:42;31.40;54.30
13892;DHT22;7016;48.172;8.058;2022-08-03T12:11:09;31.40;53.70
13892;DHT22;7016;48.172;8.058;2022-08-03T12:13:48;31.40;53.40
13892;DHT22;7016;48.172;8.058;2022-08-03T12:16:22;31.40;53.60
13892;DHT22;7016;48.172;8.058;2022-08-03T12:18:59;31.50;53.50
13892;DHT22;7016;48.172;8.058;2022-08-03T12:21:25;31.50;52.60
13892;DHT22;7016;48.172;8.058;2022-08-03T12:23:58;31.50;53.40
13892;DHT22;7016;48.172;8.058;2022-08-03T12:26:25;31.50;53.60
13892;DHT22;7016;48.172;8.058;2022-08-03T12:28:52;31.40;53.70
13892;DHT22;7016;48.172;8.058;2022-08-03T12:31:17;31.40;52.00
13892;DHT22;7016;48.172;8.058;2022-08-03T12:36:23;31.50;52.80
13892;DHT22;7016;48.172;8.058;2022-08-03T12:38:57;31.70;54.00
13892;DHT22;7016;48.172;8.058;2022-08-03T12:41:32;31.70;51.90
13892;DHT22;7016;48.172;8.058;2022-08-03T12:43:58;31.70;53.30
13892;DHT22;7016;48.172;8.058;2022-08-03T12:46:30;31.70;52.70
13892;DHT22;7016;48.172;8.058;2022-08-03T12:49:08;31.70;52.70
13892;DHT22;7016;48.172;8.058;2022-08-03T12:54:07;31.80;51.30
13892;DHT22;7016;48.172;8.058;2022-08-03T12:56:34;31.90;52.50
13892;DHT22;7016;48.172;8.058;2022-08-03T12:59:22;31.90;51.70
13892;DHT22;7016;48.172;8.058;2022-08-03T13:01:46;31.80;53.10
13892;DHT22;7016;48.172;8.058;2022-08-03T13:04:11;31.90;52.10
13892;DHT22;7016;48.172;8.058;2022-08-03T13:06:37;31.90;52.30
13892;DHT22;7016;48.172;8.058;2022-08-03T13:09:05;32.00;53.20
13892;DHT22;7016;48.172;8.058;2022-08-03T13:11:32;32.00;52.00
13892;DHT22;7016;48.172;8.058;2022-08-03T13:13:58;32.00;51.70
13892;DHT22;7016;48.172;8.058;2022-08-03T13:16:23;32.00;51.90
13892;DHT22;7016;48.172;8.058;2022-08-03T13:18:50;32.00;51.80
13892;DHT22;7016;48.172;8.058;2022-08-03T13:21:17;32.00;50.80
13892;DHT22;7016;48.172;8.058;2022-08-03T13:23:43;32.00;52.10
13892;DHT22;7016;48.172;8.058;2022-08-03T13:26:10;32.00;51.50
13892;DHT22;7016;48.172;8.058;2022-08-03T13:28:37;32.10;51.40
13892;DHT22;7016;48.172;8.058;2022-08-03T13:31:03;32.10;50.60
13892;DHT22;7016;48.172;8.058;2022-08-03T13:33:29;32.10;51.20
13892;DHT22;7016;48.172;8.058;2022-08-03T13:35:55;32.10;51.70
13892;DHT22;7016;48.172;8.058;2022-08-03T13:38:21;32.10;51.20
13892;DHT22;7016;48.172;8.058;2022-08-03T13:40:46;32.10;50.00
13892;DHT22;7016;48.172;8.058;2022-08-03T13:43:12;32.10;50.20
13892;DHT22;7016;48.172;8.058;2022-08-03T13:45:38;32.10;51.10
13892;DHT22;7016;48.172;8.058;2022-08-03T13:48:04;32.20;51.70
13892;DHT22;7016;48.172;8.058;2022-08-03T13:50:30;32.30;50.90
13892;DHT22;7016;48.172;8.058;2022-08-03T13:52:56;32.30;51.90
13892;DHT22;7016;48.172;8.058;2022-08-03T13:55:22;32.40;51.20
13892;DHT22;7016;48.172;8.058;2022-08-03T13:57:48;32.40;51.20
13892;DHT22;7016;48.172;8.058;2022-08-03T14:00:15;32.40;50.40
13892;DHT22;7016;48.172;8.058;2022-08-03T14:02:42;32.40;51.00
13892;DHT22;7016;48.172;8.058;2022-08-03T14:05:08;32.40;49.70
13892;DHT22;7016;48.172;8.058;2022-08-03T14:07:34;32.30;50.20
13892;DHT22;7016;48.172;8.058;2022-08-03T14:09:59;32.30;50.20
13892;DHT22;7016;48.172;8.058;2022-08-03T14:12:26;32.30;50.60
13892;DHT22;7016;48.172;8.058;2022-08-03T14:14:52;32.30;51.00
13892;DHT22;7016;48.172;8.058;2022-08-03T14:17:18;32.20;50.20
13892;DHT22;7016;48.172;8.058;2022-08-03T14:19:44;32.10;50.20
13892;DHT22;7016;48.172;8.058;2022-08-03T14:22:10;32.00;50.90
13892;DHT22;7016;48.172;8.058;2022-08-03T14:24:35;32.00;51.10
13892;DHT22;7016;48.172;8.058;2022-08-03T14:27:01;32.00;53.00
13892;DHT22;7016;48.172;8.058;2022-08-03T14:29:27;32.20;52.30
13892;DHT22;7016;48.172;8.058;2022-08-03T14:31:53;32.30;52.00
13892;DHT22;7016;48.172;8.058;2022-08-03T14:34:18;32.30;50.90
13892;DHT22;7016;48.172;8.058;2022-08-03T14:36:44;32.20;50.10
13892;DHT22;7016;48.172;8.058;2022-08-03T14:39:12;32.10;52.10
13892;DHT22;7016;48.172;8.058;2022-08-03T14:41:38;32.20;50.40
13892;DHT22;7016;48.172;8.058;2022-08-03T14:44:07;32.30;50.20
13892;DHT22;7016;48.172;8.058;2022-08-03T14:46:33;32.30;50.70
13892;DHT22;7016;48.172;8.058;2022-08-03T14:48:59;32.30;51.30
13892;DHT22;7016;48.172;8.058;2022-08-03T14:51:24;32.30;50.20
13892;DHT22;7016;48.172;8.058;2022-08-03T14:53:50;32.30;50.00
13892;DHT22;7016;48.172;8.058;2022-08-03T14:56:16;32.30;50.90
13892;DHT22;7016;48.172;8.058;2022-08-03T14:58:41;32.40;52.20
13892;DHT22;7016;48.172;8.058;2022-08-03T15:01:07;32.40;49.40
13892;DHT22;7016;48.172;8.058;2022-08-03T15:03:33;32.40;50.40
13892;DHT22;7016;48.172;8.058;2022-08-03T15:06:00;32.40;49.40
13892;DHT22;7016;48.172;8.058;2022-08-03T15:08:25;32.30;49.80
13892;DHT22;7016;48.172;8.058;2022-08-03T15:10:52;32.30;48.90
13892;DHT22;7016;48.172;8.058;2022-08-03T15:13:19;32.30;49.70
13892;DHT22;7016;48.172;8.058;2022-08-03T15:15:45;32.30;48.90
13892;DHT22;7016;48.172;8.058;2022-08-03T15:18:11;32.40;48.90
13892;DHT22;7016;48.172;8.058;2022-08-03T15:20:37;32.30;48.90
13892;DHT22;7016;48.172;8.058;2022-08-03T15:23:02;32.20;48.50
13892;DHT22;7016;48.172;8.058;2022-08-03T15:25:28;32.10;48.50
13892;DHT22;7016;48.172;8.058;2022-08-03T15:27:54;32.10;48.50
13892;DHT22;7016;48.172;8.058;2022-08-03T15:30:20;32.20;48.30
13892;DHT22;7016;48.172;8.058;2022-08-03T15:32:45;32.20;48.50
13892;DHT22;7016;48.172;8.058;2022-08-03T15:35:11;32.10;47.70
13892;DHT22;7016;48.172;8.058;2022-08-03T15:37:37;32.20;48.80
13892;DHT22;7016;48.172;8.058;2022-08-03T15:40:03;32.30;48.30
13892;DHT22;7016;48.172;8.058;2022-08-03T15:42:29;32.20;48.70
13892;DHT22;7016;48.172;8.058;2022-08-03T15:44:57;32.30;48.40
13892;DHT22;7016;48.172;8.058;2022-08-03T15:47:25;32.30;48.80
13892;DHT22;7016;48.172;8.058;2022-08-03T15:49:51;32.30;46.80
13892;DHT22;7016;48.172;8.058;2022-08-03T15:52:17;32.30;47.50
13892;DHT22;7016;48.172;8.058;2022-08-03T15:54:43;32.20;47.50
13892;DHT22;7016;48.172;8.058;2022-08-03T15:57:09;32.20;47.60
13892;DHT22;7016;48.172;8.058;2022-08-03T15:59:34;32.40;47.10
13892;DHT22;7016;48.172;8.058;2022-08-03T16:02:00;32.30;47.00
13892;DHT22;7016;48.172;8.058;2022-08-03T16:04:26;32.30;47.50
13892;DHT22;7016;48.172;8.058;2022-08-03T16:10:40;32.20;45.20
13892;DHT22;7016;48.172;8.058;2022-08-03T16:13:06;32.20;46.50
13892;DHT22;7016;48.172;8.058;2022-08-03T16:15:33;32.10;44.50
13892;DHT22;7016;48.172;8.058;2022-08-03T16:17:59;32.10;45.60
13892;DHT22;7016;48.172;8.058;2022-08-03T16:20:25;32.10;43.10
13892;DHT22;7016;48.172;8.058;2022-08-03T16:22:51;32.00;42.20
13892;DHT22;7016;48.172;8.058;2022-08-03T16:25:17;32.00;42.70
13892;DHT22;7016;48.172;8.058;2022-08-03T16:27:44;32.00;42.30
13892;DHT22;7016;48.172;8.058;2022-08-03T16:30:12;32.10;41.10
13892;DHT22;7016;48.172;8.058;2022-08-03T16:32:40;32.10;41.10
13892;DHT22;7016;48.172;8.058;2022-08-03T16:35:06;32.00;37.00
13892;DHT22;7016;48.172;8.058;2022-08-03T16:37:32;32.00;37.10
13892;DHT22;7016;48.172;8.058;2022-08-03T16:39:58;32.00;36.90
13892;DHT22;7016;48.172;8.058;2022-08-03T16:42:24;32.00;37.30
13892;DHT22;7016;48.172;8.058;2022-08-03T16:44:49;32.00;40.40